Saint John, Washington
Current Conditions -  °F | °C
As of 5:53 PM on Saturday 22 Nov 2014 (Local Time) from KPUW Reporting Station
Broken Clouds Broken Clouds  
Wind Chill: -2°   Ceiling: 700
Heat Index:   Visibility: 10mi
Dew Point:   Wind: 15mph
Humidity: 93%   Direction: 250°WSW
Pressure: 29.85"   Gusts: NA
Location:  47.09°N, 117.58°W
Report Text: KPUW 230153Z AUTO 25013KT 10SM BKN007 BKN012 03/02 A2985 RMK AO2 RAE15 CIG 006V010 SLP121 P0000 T00280017
Loading
Personal Weather Stations






























Interactive Weather Map New forecast layout! Learn more

10-Day Weather Forecast

Advertisements
Track Severe Weather on mobile